createdAt,value
2022-12-08T00:09:42.625Z,76.96
2022-12-08T00:19:47.112Z,77.00
2022-12-08T00:29:50.662Z,76.94
2022-12-08T00:39:55.283Z,76.93
2022-12-08T00:49:58.412Z,76.91
2022-12-08T01:00:03.110Z,76.95
2022-12-08T01:10:07.887Z,76.84
2022-12-08T01:20:12.633Z,76.73
2022-12-08T01:30:15.683Z,76.67
2022-12-08T01:40:20.218Z,76.69
2022-12-08T01:50:24.125Z,76.58
2022-12-08T02:00:29.061Z,76.54
2022-12-08T02:10:34.957Z,76.57
2022-12-08T02:20:53.985Z,76.48
2022-12-08T02:31:10.003Z,76.49
2022-12-08T02:41:24.167Z,76.30
2022-12-08T02:51:27.283Z,76.18
2022-12-08T03:01:49.819Z,76.02
2022-12-08T03:12:02.433Z,76.07
2022-12-08T03:22:07.737Z,75.91
2022-12-08T03:32:21.641Z,75.93
2022-12-08T03:42:26.084Z,75.97
2022-12-08T03:52:29.072Z,75.96
2022-12-08T04:02:34.530Z,75.97
2022-12-08T04:12:37.515Z,75.89
2022-12-08T04:22:41.879Z,75.78
2022-12-08T04:32:47.786Z,75.78
2022-12-08T04:42:52.894Z,75.76
2022-12-08T04:52:55.824Z,75.74
2022-12-08T05:03:00.368Z,75.82
2022-12-08T05:13:03.936Z,75.63
2022-12-08T05:23:08.275Z,75.66
2022-12-08T05:33:11.348Z,75.58
2022-12-08T05:43:18.822Z,75.36
2022-12-08T05:53:22.060Z,74.74
2022-12-08T06:03:26.813Z,73.57
2022-12-08T06:13:30.063Z,72.66
2022-12-08T06:23:39.164Z,72.38
2022-12-08T06:33:42.826Z,72.26
2022-12-08T06:43:47.412Z,72.00
2022-12-08T06:53:50.947Z,72.04
2022-12-08T07:03:55.423Z,71.77
2022-12-08T07:13:58.470Z,70.82
2022-12-08T07:24:03.020Z,70.38
2022-12-08T07:34:05.930Z,70.30
2022-12-08T07:44:13.518Z,70.36
2022-12-08T07:54:16.572Z,69.74
2022-12-08T08:04:20.854Z,68.74
2022-12-08T08:14:23.687Z,69.39
2022-12-08T08:24:28.079Z,68.96
2022-12-08T08:34:31.274Z,69.15
2022-12-08T08:44:35.782Z,67.91
2022-12-08T08:54:38.855Z,67.98
2022-12-08T09:04:43.815Z,68.13
2022-12-08T09:14:47.213Z,68.59
2022-12-08T09:24:51.460Z,68.82
2022-12-08T09:34:54.576Z,68.93
2022-12-08T09:45:06.224Z,69.60
2022-12-08T09:55:18.279Z,69.75
2022-12-08T10:05:24.759Z,70.37
2022-12-08T10:15:41.168Z,70.18
2022-12-08T10:25:46.681Z,70.30
2022-12-08T10:35:51.415Z,70.44
2022-12-08T10:46:07.971Z,70.84
2022-12-08T10:56:15.874Z,70.64
2022-12-08T11:06:24.164Z,70.78
2022-12-08T11:16:28.279Z,70.87
2022-12-08T11:26:35.672Z,71.04
2022-12-08T11:36:39.499Z,71.29
2022-12-08T11:46:49.176Z,70.92
2022-12-08T11:56:54.765Z,71.55
2022-12-08T12:07:25.858Z,71.55
2022-12-08T12:17:41.788Z,72.10
2022-12-08T12:27:47.299Z,72.13
2022-12-08T12:37:50.210Z,72.04
2022-12-08T12:48:21.676Z,72.11
2022-12-08T12:58:38.641Z,72.14
2022-12-08T13:08:52.206Z,71.68
2022-12-08T13:18:59.752Z,71.49
2022-12-08T13:29:18.820Z,72.13
2022-12-08T13:39:26.969Z,72.22
2022-12-08T14:00:01.749Z,71.61
2022-12-08T14:10:08.952Z,71.59
2022-12-08T14:20:22.648Z,71.65
2022-12-08T14:30:31.312Z,71.57
2022-12-08T14:40:36.351Z,71.44
2022-12-08T14:50:54.652Z,71.61
2022-12-08T15:00:59.833Z,71.95
2022-12-08T15:11:30.717Z,71.91
2022-12-08T15:21:38.477Z,72.73
2022-12-08T15:31:42.841Z,72.89
2022-12-08T15:41:45.767Z,72.25
2022-12-08T15:51:50.552Z,72.49
2022-12-08T16:01:53.534Z,72.74
2022-12-08T16:12:16.650Z,73.06
2022-12-08T16:32:46.681Z,74.78
2022-12-08T16:42:50.536Z,75.24
2022-12-08T16:52:59.461Z,74.95
2022-12-08T17:03:02.848Z,75.41
2022-12-08T17:13:07.704Z,75.46
2022-12-08T17:23:10.987Z,75.74
2022-12-08T17:33:15.563Z,75.86
2022-12-08T17:43:18.513Z,76.17
2022-12-08T17:53:23.759Z,76.47
2022-12-08T18:03:27.428Z,76.98
2022-12-08T18:13:32.454Z,77.56
2022-12-08T18:23:36.929Z,77.99
2022-12-08T18:33:42.393Z,77.69
2022-12-08T18:43:45.622Z,78.73
2022-12-08T18:53:52.905Z,78.55
2022-12-08T19:04:26.914Z,79.02
2022-12-08T19:14:27.708Z,79.32
2022-12-08T19:24:39.240Z,79.26
2022-12-08T19:34:47.959Z,79.07
2022-12-08T19:44:53.705Z,79.31
2022-12-08T19:54:58.237Z,79.36
2022-12-08T20:05:01.216Z,79.37
2022-12-08T20:15:11.786Z,79.02
2022-12-08T20:25:17.882Z,79.22
2022-12-08T20:35:22.658Z,79.25
2022-12-08T20:45:25.573Z,79.04
2022-12-08T20:55:30.050Z,79.37
2022-12-08T21:05:35.694Z,79.28
2022-12-08T21:15:45.100Z,79.64
2022-12-08T21:25:48.624Z,79.75
2022-12-08T21:36:02.258Z,79.46
2022-12-08T21:46:07.009Z,79.60
2022-12-08T21:56:11.782Z,79.61
2022-12-08T22:06:15.234Z,79.63
2022-12-08T22:16:19.921Z,79.48
2022-12-08T22:26:23.362Z,79.37
2022-12-08T22:36:30.510Z,79.35
2022-12-08T22:46:34.266Z,79.30
2022-12-08T22:56:38.933Z,79.29
2022-12-08T23:06:42.274Z,80.16
2022-12-08T23:16:46.699Z,80.18
2022-12-08T23:26:52.863Z,80.33
2022-12-08T23:36:57.254Z,80.14
2022-12-08T23:47:00.324Z,80.49
2022-12-08T23:57:04.932Z,80.18
